sensor_id;sensor_type;location;lat;lon;timestamp;temperature;humidity
70300;HTU21D;57704;51.112;5.878;2023-02-20T00:02:16;7.38;79.36
70300;HTU21D;57704;51.112;5.878;2023-02-20T00:04:42;7.35;79.31
70300;HTU21D;57704;51.112;5.878;2023-02-20T00:07:08;7.35;79.42
70300;HTU21D;57704;51.112;5.878;2023-02-20T00:09:34;7.32;79.46
70300;HTU21D;57704;51.112;5.878;2023-02-20T00:12:00;7.29;79.45
70300;HTU21D;57704;51.112;5.878;2023-02-20T00:14:26;7.30;79.48
70300;HTU21D;57704;51.112;5.878;2023-02-20T00:16:55;7.29;79.61
70300;HTU21D;57704;51.112;5.878;2023-02-20T00:19:20;7.32;79.57
70300;HTU21D;57704;51.112;5.878;2023-02-20T00:21:48;7.33;79.56
70300;HTU21D;57704;51.112;5.878;2023-02-20T00:24:15;7.32;79.53
70300;HTU21D;57704;51.112;5.878;2023-02-20T00:26:52;7.34;79.58
70300;HTU21D;57704;51.112;5.878;2023-02-20T00:29:21;7.34;79.62
70300;HTU21D;57704;51.112;5.878;2023-02-20T00:31:55;7.42;79.52
70300;HTU21D;57704;51.112;5.878;2023-02-20T00:34:24;7.46;79.46
70300;HTU21D;57704;51.112;5.878;2023-02-20T00:36:51;7.49;79.37
70300;HTU21D;57704;51.112;5.878;2023-02-20T00:39:17;7.50;79.31
70300;HTU21D;57704;51.112;5.878;2023-02-20T00:41:43;7.54;79.21
70300;HTU21D;57704;51.112;5.878;2023-02-20T00:44:09;7.56;79.10
70300;HTU21D;57704;51.112;5.878;2023-02-20T00:46:35;7.56;79.10
70300;HTU21D;57704;51.112;5.878;2023-02-20T00:49:01;7.55;79.11
70300;HTU21D;57704;51.112;5.878;2023-02-20T00:51:46;7.52;78.98
70300;HTU21D;57704;51.112;5.878;2023-02-20T00:54:12;7.49;78.97
70300;HTU21D;57704;51.112;5.878;2023-02-20T00:56:38;7.48;78.96
70300;HTU21D;57704;51.112;5.878;2023-02-20T00:59:04;7.48;78.92
70300;HTU21D;57704;51.112;5.878;2023-02-20T01:01:30;7.46;78.90
70300;HTU21D;57704;51.112;5.878;2023-02-20T01:03:56;7.45;78.95
70300;HTU21D;57704;51.112;5.878;2023-02-20T01:06:22;7.43;79.04
70300;HTU21D;57704;51.112;5.878;2023-02-20T01:08:49;7.41;79.11
70300;HTU21D;57704;51.112;5.878;2023-02-20T01:11:16;7.38;79.32
70300;HTU21D;57704;51.112;5.878;2023-02-20T01:13:42;7.39;79.26
70300;HTU21D;57704;51.112;5.878;2023-02-20T01:16:08;7.37;79.25
70300;HTU21D;57704;51.112;5.878;2023-02-20T01:18:34;7.39;79.36
70300;HTU21D;57704;51.112;5.878;2023-02-20T01:21:01;7.37;79.31
70300;HTU21D;57704;51.112;5.878;2023-02-20T01:23:27;7.37;79.37
70300;HTU21D;57704;51.112;5.878;2023-02-20T01:25:53;7.35;79.40
70300;HTU21D;57704;51.112;5.878;2023-02-20T01:28:19;7.38;79.37
70300;HTU21D;57704;51.112;5.878;2023-02-20T01:30:45;7.37;79.36
70300;HTU21D;57704;51.112;5.878;2023-02-20T01:33:12;7.32;79.48
70300;HTU21D;57704;51.112;5.878;2023-02-20T01:35:38;7.29;79.69
70300;HTU21D;57704;51.112;5.878;2023-02-20T01:38:04;7.29;79.66
70300;HTU21D;57704;51.112;5.878;2023-02-20T01:40:33;7.26;79.78
70300;HTU21D;57704;51.112;5.878;2023-02-20T01:43:01;7.25;79.85
70300;HTU21D;57704;51.112;5.878;2023-02-20T01:45:35;7.23;79.88
70300;HTU21D;57704;51.112;5.878;2023-02-20T01:48:03;7.24;79.85
70300;HTU21D;57704;51.112;5.878;2023-02-20T01:50:43;7.23;79.97
70300;HTU21D;57704;51.112;5.878;2023-02-20T01:53:14;7.23;79.97
70300;HTU21D;57704;51.112;5.878;2023-02-20T01:58:26;7.24;79.76
70300;HTU21D;57704;51.112;5.878;2023-02-20T02:00:55;7.23;79.84
70300;HTU21D;57704;51.112;5.878;2023-02-20T02:03:31;7.22;79.87
70300;HTU21D;57704;51.112;5.878;2023-02-20T02:06:11;7.20;79.95
70300;HTU21D;57704;51.112;5.878;2023-02-20T02:08:40;7.22;79.84
70300;HTU21D;57704;51.112;5.878;2023-02-20T02:11:12;7.20;79.87
70300;HTU21D;57704;51.112;5.878;2023-02-20T02:13:42;7.23;79.85
70300;HTU21D;57704;51.112;5.878;2023-02-20T02:19:48;7.19;79.78
70300;HTU21D;57704;51.112;5.878;2023-02-20T02:25:11;7.13;79.91
70300;HTU21D;57704;51.112;5.878;2023-02-20T02:38:46;7.09;79.82
70300;HTU21D;57704;51.112;5.878;2023-02-20T02:41:41;7.04;79.98
70300;HTU21D;57704;51.112;5.878;2023-02-20T02:44:31;7.07;79.90
70300;HTU21D;57704;51.112;5.878;2023-02-20T02:47:10;7.04;79.88
70300;HTU21D;57704;51.112;5.878;2023-02-20T02:52:21;7.01;80.09
70300;HTU21D;57704;51.112;5.878;2023-02-20T02:55:09;6.98;80.22
70300;HTU21D;57704;51.112;5.878;2023-02-20T02:57:37;6.99;80.19
70300;HTU21D;57704;51.112;5.878;2023-02-20T03:03:05;6.97;80.16
70300;HTU21D;57704;51.112;5.878;2023-02-20T03:05:40;6.97;80.15
70300;HTU21D;57704;51.112;5.878;2023-02-20T03:08:26;6.95;80.29
70300;HTU21D;57704;51.112;5.878;2023-02-20T03:11:13;6.96;80.24
70300;HTU21D;57704;51.112;5.878;2023-02-20T03:13:50;6.96;80.17
70300;HTU21D;57704;51.112;5.878;2023-02-20T03:16:45;6.98;80.07
70300;HTU21D;57704;51.112;5.878;2023-02-20T03:19:18;6.96;80.14
70300;HTU21D;57704;51.112;5.878;2023-02-20T03:21:51;6.96;80.17
70300;HTU21D;57704;51.112;5.878;2023-02-20T03:24:23;6.95;80.22
70300;HTU21D;57704;51.112;5.878;2023-02-20T03:26:55;6.93;80.31
70300;HTU21D;57704;51.112;5.878;2023-02-20T03:29:26;6.91;80.34
70300;HTU21D;57704;51.112;5.878;2023-02-20T03:32:01;6.90;80.40
70300;HTU21D;57704;51.112;5.878;2023-02-20T03:34:52;6.89;80.49
70300;HTU21D;57704;51.112;5.878;2023-02-20T03:37:42;6.89;80.48
70300;HTU21D;57704;51.112;5.878;2023-02-20T03:40:30;6.89;80.43
70300;HTU21D;57704;51.112;5.878;2023-02-20T03:43:19;6.85;80.59
70300;HTU21D;57704;51.112;5.878;2023-02-20T03:46:04;6.87;80.54
70300;HTU21D;57704;51.112;5.878;2023-02-20T03:51:06;6.82;80.77
70300;HTU21D;57704;51.112;5.878;2023-02-20T03:53:44;6.80;80.78
70300;HTU21D;57704;51.112;5.878;2023-02-20T03:56:52;6.80;80.80
70300;HTU21D;57704;51.112;5.878;2023-02-20T03:59:16;6.81;80.77
70300;HTU21D;57704;51.112;5.878;2023-02-20T04:01:48;6.81;80.85
70300;HTU21D;57704;51.112;5.878;2023-02-20T04:04:29;6.82;80.85
70300;HTU21D;57704;51.112;5.878;2023-02-20T04:06:59;6.82;80.81
70300;HTU21D;57704;51.112;5.878;2023-02-20T04:09:32;6.79;80.88
70300;HTU21D;57704;51.112;5.878;2023-02-20T04:14:40;6.83;80.88
70300;HTU21D;57704;51.112;5.878;2023-02-20T04:17:14;6.83;80.97
70300;HTU21D;57704;51.112;5.878;2023-02-20T04:19:42;6.83;81.02
70300;HTU21D;57704;51.112;5.878;2023-02-20T04:22:17;6.83;80.98
70300;HTU21D;57704;51.112;5.878;2023-02-20T04:24:56;6.85;81.11
70300;HTU21D;57704;51.112;5.878;2023-02-20T04:27:25;6.86;81.15
70300;HTU21D;57704;51.112;5.878;2023-02-20T04:29:55;6.88;81.14
70300;HTU21D;57704;51.112;5.878;2023-02-20T04:32:21;6.90;81.12
70300;HTU21D;57704;51.112;5.878;2023-02-20T04:34:48;6.93;80.95
70300;HTU21D;57704;51.112;5.878;2023-02-20T04:37:18;6.91;81.18
70300;HTU21D;57704;51.112;5.878;2023-02-20T04:39:45;6.86;81.09
70300;HTU21D;57704;51.112;5.878;2023-02-20T04:42:13;6.86;81.13
70300;HTU21D;57704;51.112;5.878;2023-02-20T04:44:40;6.85;81.07
70300;HTU21D;57704;51.112;5.878;2023-02-20T04:47:13;6.83;81.10
70300;HTU21D;57704;51.112;5.878;2023-02-20T04:49:39;6.80;81.07
70300;HTU21D;57704;51.112;5.878;2023-02-20T04:52:08;6.74;81.22
70300;HTU21D;57704;51.112;5.878;2023-02-20T04:54:34;6.75;81.26
70300;HTU21D;57704;51.112;5.878;2023-02-20T04:57:02;6.76;81.28
70300;HTU21D;57704;51.112;5.878;2023-02-20T04:59:29;6.75;81.24
70300;HTU21D;57704;51.112;5.878;2023-02-20T05:01:58;6.78;81.17
70300;HTU21D;57704;51.112;5.878;2023-02-20T05:04:27;6.79;81.15
70300;HTU21D;57704;51.112;5.878;2023-02-20T05:06:55;6.80;81.07
70300;HTU21D;57704;51.112;5.878;2023-02-20T05:09:22;6.79;81.11
70300;HTU21D;57704;51.112;5.878;2023-02-20T05:11:49;6.79;81.03
70300;HTU21D;57704;51.112;5.878;2023-02-20T05:14:16;6.82;81.10
70300;HTU21D;57704;51.112;5.878;2023-02-20T05:16:44;6.83;81.05
70300;HTU21D;57704;51.112;5.878;2023-02-20T05:19:13;6.84;81.07
70300;HTU21D;57704;51.112;5.878;2023-02-20T05:21:45;6.85;81.01
70300;HTU21D;57704;51.112;5.878;2023-02-20T05:24:31;6.85;81.11
70300;HTU21D;57704;51.112;5.878;2023-02-20T05:26:58;6.88;81.18
70300;HTU21D;57704;51.112;5.878;2023-02-20T05:29:24;6.90;81.17
70300;HTU21D;57704;51.112;5.878;2023-02-20T05:31:50;6.96;81.10
70300;HTU21D;57704;51.112;5.878;2023-02-20T05:34:16;7.09;80.74
70300;HTU21D;57704;51.112;5.878;2023-02-20T05:36:45;7.05;80.73
70300;HTU21D;57704;51.112;5.878;2023-02-20T05:39:11;7.05;80.75
70300;HTU21D;57704;51.112;5.878;2023-02-20T05:41:37;7.09;80.58
70300;HTU21D;57704;51.112;5.878;2023-02-20T05:44:04;7.08;80.70
70300;HTU21D;57704;51.112;5.878;2023-02-20T05:46:30;7.08;80.56
70300;HTU21D;57704;51.112;5.878;2023-02-20T05:48:59;7.10;80.62
70300;HTU21D;57704;51.112;5.878;2023-02-20T05:51:28;7.14;80.45
70300;HTU21D;57704;51.112;5.878;2023-02-20T05:53:55;7.20;80.24
70300;HTU21D;57704;51.112;5.878;2023-02-20T05:56:22;7.19;80.25
70300;HTU21D;57704;51.112;5.878;2023-02-20T05:58:48;7.20;80.31
70300;HTU21D;57704;51.112;5.878;2023-02-20T06:01:27;7.27;80.18
70300;HTU21D;57704;51.112;5.878;2023-02-20T06:03:53;7.27;80.15
70300;HTU21D;57704;51.112;5.878;2023-02-20T06:06:20;7.31;80.12
70300;HTU21D;57704;51.112;5.878;2023-02-20T06:08:46;7.32;79.77
70300;HTU21D;57704;51.112;5.878;2023-02-20T06:11:15;7.32;79.91
70300;HTU21D;57704;51.112;5.878;2023-02-20T06:13:43;7.31;79.90
70300;HTU21D;57704;51.112;5.878;2023-02-20T06:16:09;7.32;79.90
70300;HTU21D;57704;51.112;5.878;2023-02-20T06:18:39;7.35;79.86
70300;HTU21D;57704;51.112;5.878;2023-02-20T06:21:09;7.37;79.78
70300;HTU21D;57704;51.112;5.878;2023-02-20T06:23:39;7.38;79.81
70300;HTU21D;57704;51.112;5.878;2023-02-20T06:26:07;7.40;79.70
70300;HTU21D;57704;51.112;5.878;2023-02-20T06:28:38;7.41;79.70
70300;HTU21D;57704;51.112;5.878;2023-02-20T06:31:05;7.45;79.30
70300;HTU21D;57704;51.112;5.878;2023-02-20T06:33:32;7.43;79.57
70300;HTU21D;57704;51.112;5.878;2023-02-20T06:35:58;7.42;79.54
70300;HTU21D;57704;51.112;5.878;2023-02-20T06:38:28;7.43;79.49
70300;HTU21D;57704;51.112;5.878;2023-02-20T06:40:54;7.42;79.66
70300;HTU21D;57704;51.112;5.878;2023-02-20T06:43:20;7.48;79.58
70300;HTU21D;57704;51.112;5.878;2023-02-20T06:45:46;7.49;79.49
70300;HTU21D;57704;51.112;5.878;2023-02-20T06:48:12;7.55;79.25
70300;HTU21D;57704;51.112;5.878;2023-02-20T06:50:42;7.55;79.11
70300;HTU21D;57704;51.112;5.878;2023-02-20T06:53:08;7.57;79.11
70300;HTU21D;57704;51.112;5.878;2023-02-20T06:55:34;7.58;79.23
70300;HTU21D;57704;51.112;5.878;2023-02-20T06:58:00;7.59;79.25
70300;HTU21D;57704;51.112;5.878;2023-02-20T07:00:29;7.63;79.06
70300;HTU21D;57704;51.112;5.878;2023-02-20T07:02:55;7.67;79.01
70300;HTU21D;57704;51.112;5.878;2023-02-20T07:05:21;7.68;78.88
70300;HTU21D;57704;51.112;5.878;2023-02-20T07:07:47;7.68;78.89
70300;HTU21D;57704;51.112;5.878;2023-02-20T07:10:13;7.67;78.85
70300;HTU21D;57704;51.112;5.878;2023-02-20T07:12:39;7.65;78.94
70300;HTU21D;57704;51.112;5.878;2023-02-20T07:15:06;7.70;78.87
70300;HTU21D;57704;51.112;5.878;2023-02-20T07:17:33;7.70;78.98
70300;HTU21D;57704;51.112;5.878;2023-02-20T07:20:06;7.74;78.85
70300;HTU21D;57704;51.112;5.878;2023-02-20T07:22:33;7.73;78.61
70300;HTU21D;57704;51.112;5.878;2023-02-20T07:24:59;7.74;78.65
70300;HTU21D;57704;51.112;5.878;2023-02-20T07:27:25;7.76;78.58
70300;HTU21D;57704;51.112;5.878;2023-02-20T07:29:51;7.76;78.69
70300;HTU21D;57704;51.112;5.878;2023-02-20T07:32:17;7.85;78.29
70300;HTU21D;57704;51.112;5.878;2023-02-20T07:34:46;7.79;78.58
70300;HTU21D;57704;51.112;5.878;2023-02-20T07:37:13;7.85;78.48
70300;HTU21D;57704;51.112;5.878;2023-02-20T07:39:40;7.86;78.49
70300;HTU21D;57704;51.112;5.878;2023-02-20T07:42:06;7.88;78.43
70300;HTU21D;57704;51.112;5.878;2023-02-20T07:44:48;7.91;77.98
70300;HTU21D;57704;51.112;5.878;2023-02-20T07:47:14;7.90;78.21
70300;HTU21D;57704;51.112;5.878;2023-02-20T07:49:40;7.92;78.22
70300;HTU21D;57704;51.112;5.878;2023-02-20T07:52:07;7.92;78.18
70300;HTU21D;57704;51.112;5.878;2023-02-20T07:54:33;7.94;78.05
70300;HTU21D;57704;51.112;5.878;2023-02-20T07:56:59;7.99;78.12
70300;HTU21D;57704;51.112;5.878;2023-02-20T07:59:25;8.07;77.68
70300;HTU21D;57704;51.112;5.878;2023-02-20T08:01:51;8.02;77.85
70300;HTU21D;57704;51.112;5.878;2023-02-20T08:04:17;8.03;77.92
70300;HTU21D;57704;51.112;5.878;2023-02-20T08:06:43;8.05;77.65
70300;HTU21D;57704;51.112;5.878;2023-02-20T08:09:09;8.07;77.86
70300;HTU21D;57704;51.112;5.878;2023-02-20T08:11:36;8.12;77.87
70300;HTU21D;57704;51.112;5.878;2023-02-20T08:14:04;8.15;77.54
70300;HTU21D;57704;51.112;5.878;2023-02-20T08:16:31;8.14;77.78
70300;HTU21D;57704;51.112;5.878;2023-02-20T08:18:58;8.21;77.66
70300;HTU21D;57704;51.112;5.878;2023-02-20T08:21:24;8.24;77.65
70300;HTU21D;57704;51.112;5.878;2023-02-20T08:23:50;8.34;77.21
70300;HTU21D;57704;51.112;5.878;2023-02-20T08:26:17;8.38;77.29
70300;HTU21D;57704;51.112;5.878;2023-02-20T08:28:48;8.45;77.05
70300;HTU21D;57704;51.112;5.878;2023-02-20T08:31:15;8.50;77.06
70300;HTU21D;57704;51.112;5.878;2023-02-20T08:33:41;8.56;76.79
70300;HTU21D;57704;51.112;5.878;2023-02-20T08:36:07;8.58;76.73
70300;HTU21D;57704;51.112;5.878;2023-02-20T08:38:36;8.63;76.74
70300;HTU21D;57704;51.112;5.878;2023-02-20T08:41:05;8.68;76.56
70300;HTU21D;57704;51.112;5.878;2023-02-20T08:43:33;8.76;76.21
70300;HTU21D;57704;51.112;5.878;2023-02-20T08:46:02;8.80;76.00
70300;HTU21D;57704;51.112;5.878;2023-02-20T08:48:29;8.85;75.79
70300;HTU21D;57704;51.112;5.878;2023-02-20T08:50:55;8.81;76.00
70300;HTU21D;57704;51.112;5.878;2023-02-20T08:53:21;8.87;75.84
70300;HTU21D;57704;51.112;5.878;2023-02-20T08:55:47;8.86;75.78
70300;HTU21D;57704;51.112;5.878;2023-02-20T08:58:18;8.90;75.79
70300;HTU21D;57704;51.112;5.878;2023-02-20T09:00:47;8.95;75.68
70300;HTU21D;57704;51.112;5.878;2023-02-20T09:03:14;8.98;75.54
70300;HTU21D;57704;51.112;5.878;2023-02-20T09:05:41;9.02;75.55
70300;HTU21D;57704;51.112;5.878;2023-02-20T09:08:07;9.01;75.54
70300;HTU21D;57704;51.112;5.878;2023-02-20T09:10:33;9.07;75.41
70300;HTU21D;57704;51.112;5.878;2023-02-20T09:12:59;9.04;75.30
70300;HTU21D;57704;51.112;5.878;2023-02-20T09:15:28;9.07;75.16
70300;HTU21D;57704;51.112;5.878;2023-02-20T09:17:56;9.07;75.19
70300;HTU21D;57704;51.112;5.878;2023-02-20T09:20:22;9.11;75.20
70300;HTU21D;57704;51.112;5.878;2023-02-20T09:22:49;9.17;75.07
70300;HTU21D;57704;51.112;5.878;2023-02-20T09:25:17;9.22;74.73
70300;HTU21D;57704;51.112;5.878;2023-02-20T09:27:43;9.24;74.56
70300;HTU21D;57704;51.112;5.878;2023-02-20T09:30:17;9.26;74.76
70300;HTU21D;57704;51.112;5.878;2023-02-20T09:32:45;9.33;74.51
70300;HTU21D;57704;51.112;5.878;2023-02-20T09:35:24;9.36;74.32
70300;HTU21D;57704;51.112;5.878;2023-02-20T09:37:51;9.39;74.28
70300;HTU21D;57704;51.112;5.878;2023-02-20T09:40:22;9.36;73.33
70300;HTU21D;57704;51.112;5.878;2023-02-20T09:48:42;9.37;73.93
70300;HTU21D;57704;51.112;5.878;2023-02-20T09:51:16;9.40;74.31
70300;HTU21D;57704;51.112;5.878;2023-02-20T09:56:58;9.48;74.15
70300;HTU21D;57704;51.112;5.878;2023-02-20T09:59:31;9.55;73.55
70300;HTU21D;57704;51.112;5.878;2023-02-20T10:02:23;9.60;73.61
70300;HTU21D;57704;51.112;5.878;2023-02-20T10:04:53;9.59;73.72
70300;HTU21D;57704;51.112;5.878;2023-02-20T10:07:25;9.56;73.83
70300;HTU21D;57704;51.112;5.878;2023-02-20T10:09:53;9.61;73.77
70300;HTU21D;57704;51.112;5.878;2023-02-20T10:15:36;9.69;73.70
70300;HTU21D;57704;51.112;5.878;2023-02-20T10:18:18;9.74;73.31
70300;HTU21D;57704;51.112;5.878;2023-02-20T10:23:52;9.71;73.30
70300;HTU21D;57704;51.112;5.878;2023-02-20T10:26:32;9.70;73.28
70300;HTU21D;57704;51.112;5.878;2023-02-20T10:29:20;9.70;73.41
70300;HTU21D;57704;51.112;5.878;2023-02-20T10:32:13;9.67;73.25
70300;HTU21D;57704;51.112;5.878;2023-02-20T10:34:55;9.62;73.41
70300;HTU21D;57704;51.112;5.878;2023-02-20T10:37:28;9.65;73.69
70300;HTU21D;57704;51.112;5.878;2023-02-20T10:42:46;9.76;73.32
70300;HTU21D;57704;51.112;5.878;2023-02-20T10:48:10;9.84;73.25
70300;HTU21D;57704;51.112;5.878;2023-02-20T10:54:07;9.94;73.34
70300;HTU21D;57704;51.112;5.878;2023-02-20T10:56:59;10.01;72.99
70300;HTU21D;57704;51.112;5.878;2023-02-20T10:59:24;9.99;73.09
70300;HTU21D;57704;51.112;5.878;2023-02-20T11:01:55;10.06;73.04
70300;HTU21D;57704;51.112;5.878;2023-02-20T11:04:28;10.11;72.59
70300;HTU21D;57704;51.112;5.878;2023-02-20T11:06:59;10.15;72.61
70300;HTU21D;57704;51.112;5.878;2023-02-20T11:09:26;10.18;72.19
70300;HTU21D;57704;51.112;5.878;2023-02-20T11:11:53;10.09;72.03
70300;HTU21D;57704;51.112;5.878;2023-02-20T11:14:21;10.05;72.43
70300;HTU21D;57704;51.112;5.878;2023-02-20T11:16:51;10.07;72.74
70300;HTU21D;57704;51.112;5.878;2023-02-20T11:21:53;10.18;72.61
70300;HTU21D;57704;51.112;5.878;2023-02-20T11:24:26;10.13;72.48
70300;HTU21D;57704;51.112;5.878;2023-02-20T11:27:07;10.07;72.73
70300;HTU21D;57704;51.112;5.878;2023-02-20T11:37:28;10.05;72.82
70300;HTU21D;57704;51.112;5.878;2023-02-20T11:39:58;10.01;72.95
70300;HTU21D;57704;51.112;5.878;2023-02-20T11:42:32;10.00;72.99
70300;HTU21D;57704;51.112;5.878;2023-02-20T11:45:22;10.01;73.03
70300;HTU21D;57704;51.112;5.878;2023-02-20T11:48:09;9.99;73.16
70300;HTU21D;57704;51.112;5.878;2023-02-20T11:50:46;10.04;73.11
70300;HTU21D;57704;51.112;5.878;2023-02-20T11:53:23;9.99;73.14
70300;HTU21D;57704;51.112;5.878;2023-02-20T11:56:07;9.98;73.28
70300;HTU21D;57704;51.112;5.878;2023-02-20T11:58:35;9.99;73.14
70300;HTU21D;57704;51.112;5.878;2023-02-20T12:01:04;9.99;73.20
70300;HTU21D;57704;51.112;5.878;2023-02-20T12:03:33;9.97;73.28
70300;HTU21D;57704;51.112;5.878;2023-02-20T12:06:06;10.00;73.06
70300;HTU21D;57704;51.112;5.878;2023-02-20T12:08:53;9.96;73.34
70300;HTU21D;57704;51.112;5.878;2023-02-20T12:11:22;9.95;73.35
70300;HTU21D;57704;51.112;5.878;2023-02-20T12:13:52;9.89;73.70
70300;HTU21D;57704;51.112;5.878;2023-02-20T12:22:26;10.00;73.76
70300;HTU21D;57704;51.112;5.878;2023-02-20T12:25:09;10.01;73.78
70300;HTU21D;57704;51.112;5.878;2023-02-20T12:36:31;10.07;73.56
70300;HTU21D;57704;51.112;5.878;2023-02-20T12:41:48;10.03;73.93
70300;HTU21D;57704;51.112;5.878;2023-02-20T12:49:51;10.05;74.15
70300;HTU21D;57704;51.112;5.878;2023-02-20T12:52:26;10.07;74.02
70300;HTU21D;57704;51.112;5.878;2023-02-20T12:55:01;10.06;74.22
70300;HTU21D;57704;51.112;5.878;2023-02-20T12:57:42;10.12;74.12
70300;HTU21D;57704;51.112;5.878;2023-02-20T13:03:17;10.16;73.89
70300;HTU21D;57704;51.112;5.878;2023-02-20T13:05:47;10.16;73.99
70300;HTU21D;57704;51.112;5.878;2023-02-20T13:08:27;10.16;73.95
70300;HTU21D;57704;51.112;5.878;2023-02-20T13:10:58;10.18;73.99
70300;HTU21D;57704;51.112;5.878;2023-02-20T13:16:40;10.19;74.15
70300;HTU21D;57704;51.112;5.878;2023-02-20T13:22:03;10.20;74.12
70300;HTU21D;57704;51.112;5.878;2023-02-20T13:24:36;10.21;74.23
70300;HTU21D;57704;51.112;5.878;2023-02-20T13:27:05;10.24;74.15
70300;HTU21D;57704;51.112;5.878;2023-02-20T13:29:37;10.24;74.14
70300;HTU21D;57704;51.112;5.878;2023-02-20T13:32:24;10.25;74.23
70300;HTU21D;57704;51.112;5.878;2023-02-20T13:34:51;10.28;74.18
70300;HTU21D;57704;51.112;5.878;2023-02-20T13:46:14;10.36;73.83
70300;HTU21D;57704;51.112;5.878;2023-02-20T13:48:47;10.36;73.93
70300;HTU21D;57704;51.112;5.878;2023-02-20T13:53:54;10.36;73.98
70300;HTU21D;57704;51.112;5.878;2023-02-20T13:56:27;10.39;73.96
70300;HTU21D;57704;51.112;5.878;2023-02-20T13:58:57;10.41;73.79
70300;HTU21D;57704;51.112;5.878;2023-02-20T14:01:24;10.44;73.79
70300;HTU21D;57704;51.112;5.878;2023-02-20T14:04:04;10.46;73.52
70300;HTU21D;57704;51.112;5.878;2023-02-20T14:06:30;10.45;73.51
70300;HTU21D;57704;51.112;5.878;2023-02-20T14:09:09;10.44;73.36
70300;HTU21D;57704;51.112;5.878;2023-02-20T14:11:38;10.46;73.36
70300;HTU21D;57704;51.112;5.878;2023-02-20T14:14:25;10.45;73.35
70300;HTU21D;57704;51.112;5.878;2023-02-20T14:17:03;10.42;73.38
70300;HTU21D;57704;51.112;5.878;2023-02-20T14:19:30;10.41;73.76
70300;HTU21D;57704;51.112;5.878;2023-02-20T14:24:44;10.51;73.50
70300;HTU21D;57704;51.112;5.878;2023-02-20T14:27:31;10.56;72.98
70300;HTU21D;57704;51.112;5.878;2023-02-20T14:30:18;10.57;73.32
70300;HTU21D;57704;51.112;5.878;2023-02-20T14:32:51;10.60;73.11
70300;HTU21D;57704;51.112;5.878;2023-02-20T14:38:24;10.67;72.88
70300;HTU21D;57704;51.112;5.878;2023-02-20T14:40:52;10.68;73.10
70300;HTU21D;57704;51.112;5.878;2023-02-20T14:43:23;10.75;72.89
70300;HTU21D;57704;51.112;5.878;2023-02-20T14:46:04;10.71;72.78
70300;HTU21D;57704;51.112;5.878;2023-02-20T14:48:34;10.70;72.72
70300;HTU21D;57704;51.112;5.878;2023-02-20T14:51:12;10.67;72.57
70300;HTU21D;57704;51.112;5.878;2023-02-20T14:53:40;10.62;72.90
70300;HTU21D;57704;51.112;5.878;2023-02-20T14:56:17;10.67;72.75
70300;HTU21D;57704;51.112;5.878;2023-02-20T14:58:44;10.62;72.80
70300;HTU21D;57704;51.112;5.878;2023-02-20T15:01:32;10.57;73.05
70300;HTU21D;57704;51.112;5.878;2023-02-20T15:04:06;10.58;73.11
70300;HTU21D;57704;51.112;5.878;2023-02-20T15:06:36;10.58;73.17
70300;HTU21D;57704;51.112;5.878;2023-02-20T15:09:04;10.58;73.06
70300;HTU21D;57704;51.112;5.878;2023-02-20T15:11:31;10.59;73.00
70300;HTU21D;57704;51.112;5.878;2023-02-20T15:13:59;10.56;73.11
70300;HTU21D;57704;51.112;5.878;2023-02-20T15:16:30;10.58;72.62
70300;HTU21D;57704;51.112;5.878;2023-02-20T15:19:00;10.56;73.01
70300;HTU21D;57704;51.112;5.878;2023-02-20T15:21:37;10.55;73.06
70300;HTU21D;57704;51.112;5.878;2023-02-20T15:24:33;10.52;73.16
70300;HTU21D;57704;51.112;5.878;2023-02-20T15:27:18;10.55;73.14
70300;HTU21D;57704;51.112;5.878;2023-02-20T15:30:12;10.55;73.15
70300;HTU21D;57704;51.112;5.878;2023-02-20T15:32:42;10.55;73.15
70300;HTU21D;57704;51.112;5.878;2023-02-20T15:35:15;10.56;73.16
70300;HTU21D;57704;51.112;5.878;2023-02-20T15:37:42;10.55;73.04
70300;HTU21D;57704;51.112;5.878;2023-02-20T15:40:15;10.56;73.25
70300;HTU21D;57704;51.112;5.878;2023-02-20T15:42:42;10.57;73.28
70300;HTU21D;57704;51.112;5.878;2023-02-20T15:45:11;10.63;73.11
70300;HTU21D;57704;51.112;5.878;2023-02-20T15:47:37;10.64;73.07
70300;HTU21D;57704;51.112;5.878;2023-02-20T15:50:03;10.62;73.19
70300;HTU21D;57704;51.112;5.878;2023-02-20T15:52:30;10.62;73.17
70300;HTU21D;57704;51.112;5.878;2023-02-20T15:54:57;10.62;73.31
70300;HTU21D;57704;51.112;5.878;2023-02-20T15:57:25;10.62;73.19
70300;HTU21D;57704;51.112;5.878;2023-02-20T15:59:51;10.57;73.15
70300;HTU21D;57704;51.112;5.878;2023-02-20T16:02:20;10.57;73.33
70300;HTU21D;57704;51.112;5.878;2023-02-20T16:04:50;10.56;73.35
70300;HTU21D;57704;51.112;5.878;2023-02-20T16:07:18;10.56;73.33
70300;HTU21D;57704;51.112;5.878;2023-02-20T16:09:45;10.54;73.49
70300;HTU21D;57704;51.112;5.878;2023-02-20T16:12:20;10.55;73.51
70300;HTU21D;57704;51.112;5.878;2023-02-20T16:14:50;10.55;73.59
70300;HTU21D;57704;51.112;5.878;2023-02-20T16:17:24;10.58;73.62
70300;HTU21D;57704;51.112;5.878;2023-02-20T16:19:51;10.63;73.50
70300;HTU21D;57704;51.112;5.878;2023-02-20T16:22:17;10.62;73.40
70300;HTU21D;57704;51.112;5.878;2023-02-20T16:24:43;10.59;73.51
70300;HTU21D;57704;51.112;5.878;2023-02-20T16:27:27;10.58;73.61
70300;HTU21D;57704;51.112;5.878;2023-02-20T16:29:56;10.57;73.58
70300;HTU21D;57704;51.112;5.878;2023-02-20T16:32:24;10.55;73.67
70300;HTU21D;57704;51.112;5.878;2023-02-20T16:34:53;10.52;73.70
70300;HTU21D;57704;51.112;5.878;2023-02-20T16:37:19;10.46;73.99
70300;HTU21D;57704;51.112;5.878;2023-02-20T16:39:46;10.52;74.00
70300;HTU21D;57704;51.112;5.878;2023-02-20T16:42:26;10.50;73.97
70300;HTU21D;57704;51.112;5.878;2023-02-20T16:44:53;10.50;74.04
70300;HTU21D;57704;51.112;5.878;2023-02-20T16:47:23;10.51;74.02
70300;HTU21D;57704;51.112;5.878;2023-02-20T16:49:50;10.49;74.13
70300;HTU21D;57704;51.112;5.878;2023-02-20T16:52:23;10.50;74.12
70300;HTU21D;57704;51.112;5.878;2023-02-20T16:54:50;10.54;73.99
70300;HTU21D;57704;51.112;5.878;2023-02-20T16:57:17;10.53;74.08
70300;HTU21D;57704;51.112;5.878;2023-02-20T16:59:46;10.53;73.98
70300;HTU21D;57704;51.112;5.878;2023-02-20T17:02:18;10.52;74.04
70300;HTU21D;57704;51.112;5.878;2023-02-20T17:04:45;10.53;74.12
70300;HTU21D;57704;51.112;5.878;2023-02-20T17:07:11;10.53;73.99
70300;HTU21D;57704;51.112;5.878;2023-02-20T17:09:37;10.50;74.10
70300;HTU21D;57704;51.112;5.878;2023-02-20T17:12:04;10.50;74.12
70300;HTU21D;57704;51.112;5.878;2023-02-20T17:14:30;10.48;74.12
70300;HTU21D;57704;51.112;5.878;2023-02-20T17:16:56;10.49;74.22
70300;HTU21D;57704;51.112;5.878;2023-02-20T17:19:22;10.49;74.23
70300;HTU21D;57704;51.112;5.878;2023-02-20T17:21:51;10.50;74.28
70300;HTU21D;57704;51.112;5.878;2023-02-20T17:24:18;10.46;74.24
70300;HTU21D;57704;51.112;5.878;2023-02-20T17:26:45;10.46;74.29
70300;HTU21D;57704;51.112;5.878;2023-02-20T17:29:12;10.42;74.43
70300;HTU21D;57704;51.112;5.878;2023-02-20T17:31:38;10.44;74.34
70300;HTU21D;57704;51.112;5.878;2023-02-20T17:34:06;10.43;74.42
70300;HTU21D;57704;51.112;5.878;2023-02-20T17:36:32;10.44;74.51
70300;HTU21D;57704;51.112;5.878;2023-02-20T17:38:59;10.43;74.47
70300;HTU21D;57704;51.112;5.878;2023-02-20T17:41:25;10.42;74.47
70300;HTU21D;57704;51.112;5.878;2023-02-20T17:43:50;10.40;74.59